Hauptseite
METAR-TAF:

METAR-TAF

Flughäfen :

Westminster, Maryland, Vereinigte Staaten

Breite: 39-36-30N, Länge: 077-00-28W, Höhe: 240 m

Beobachtung

Neuester Wetterbericht von vor 16 Minuten, um 00:35 UTC
Wind 8 kt aus West/Nordwest
Temperatur 1°C
Luftfeuchtigkeit 51%
Luftdruck 1031 hPa
Sichtweite: 16.1 km
Himmel klar

METAR: KDMW 120035Z AUTO 30008KT 10SM CLR 01/M08 A3045 RMK AO2

Zeit: 19:51 (00:51 UTC)


TAF: fehlend

Wetterbeobachtungen und Prognosen von mehr als 4000 Flughäfen (METAR und TAF Bericht).

Die verfügbaren Stationen werden durch gelbe und rote Markierungen auf der Karte dargestellt.

Führen Sie die Maus auf sie, um den Namen der Station zu sehen.

Darauf klicken, um die Beobachtung von Wetterbeobachtungen und Prognosen zu sehen.

Um die Karte zu ändern : klicken Sie auf den grünen Tasten mit einem schwarzen Kreuz Zum Vergrößern, auf den grünen Button mit einem Gedankenstrich zu verkleinern, oder auf die grünen Pfeile für benachbarte Karten.


METAR-TAF: